Time;durP1;ratioP1;P1;durP2;ratioP2;P2;SDS_P1;SDS_P2;PMS_P1;PMS_P2;Temp;Humidity;BMP_temperature;BMP_pressure;BME280_temperature;BME280_humidity;BME280_pressure;Samples;Min_cycle;Max_cycle;Signal;HPM_P1;HPM_P2
2021/01/21 00:02:24;;;;;;;9.48;3.47;;;2.80;85.80;;;;;;4999316;28;20065;-81
2021/01/21 00:04:51;;;;;;;5.57;2.17;;;2.90;85.90;;;;;;4985308;28;20050;-82
2021/01/21 00:07:18;;;;;;;5.00;2.25;;;2.70;85.90;;;;;;5004183;28;20341;-81
2021/01/21 00:09:46;;;;;;;5.05;2.15;;;2.70;86.40;;;;;;5002693;28;20131;-83
2021/01/21 00:12:13;;;;;;;5.63;2.15;;;2.60;86.60;;;;;;5005186;28;20048;-82
2021/01/21 00:14:39;;;;;;;4.38;2.20;;;2.60;86.40;;;;;;5001523;28;20053;-83
2021/01/21 00:17:06;;;;;;;13.40;3.45;;;2.60;86.30;;;;;;4981930;28;20058;-84
2021/01/21 00:19:33;;;;;;;10.20;2.17;;;2.50;86.40;;;;;;4986266;28;20064;-83
2021/01/21 00:22:00;;;;;;;7.93;2.97;;;2.40;86.60;;;;;;4990405;28;20435;-82
2021/01/21 00:24:29;;;;;;;6.75;2.70;;;2.40;86.60;;;;;;4982432;28;20038;-82
2021/01/21 00:26:57;;;;;;;5.63;2.35;;;2.30;86.90;;;;;;5003432;28;20050;-81
2021/01/21 00:29:24;;;;;;;6.13;2.65;;;2.20;87.10;;;;;;4985487;28;20341;-82
2021/01/21 00:31:51;;;;;;;4.60;2.05;;;2.20;87.30;;;;;;5010542;28;22098;-81
2021/01/21 00:34:18;;;;;;;5.60;2.47;;;2.20;87.40;;;;;;4984476;28;20057;-83
2021/01/21 00:36:45;;;;;;;5.15;2.45;;;2.20;87.50;;;;;;5002046;28;20050;-85
2021/01/21 00:39:11;;;;;;;6.18;2.63;;;2.30;87.50;;;;;;4981801;28;20386;-82
2021/01/21 00:41:38;;;;;;;5.80;2.75;;;2.30;87.40;;;;;;5007991;28;20054;-83
2021/01/21 00:44:06;;;;;;;3.38;2.38;;;2.30;87.30;;;;;;4972791;28;20058;-84
2021/01/21 00:46:33;;;;;;;4.88;2.08;;;2.30;87.00;;;;;;5005268;28;20122;-83
2021/01/21 00:49:00;;;;;;;4.55;2.00;;;2.40;87.10;;;;;;5005251;28;20431;-81
2021/01/21 00:51:29;;;;;;;6.13;2.83;;;2.30;87.00;;;;;;5006088;28;20046;-84
2021/01/21 00:53:56;;;;;;;5.35;2.55;;;2.40;87.10;;;;;;4999432;28;20128;-81
2021/01/21 00:56:24;;;;;;;9.00;2.70;;;2.40;87.00;;;;;;5000160;28;20156;-81
2021/01/21 00:58:51;;;;;;;5.45;2.67;;;2.50;86.90;;;;;;4982153;28;20049;-82
2021/01/21 01:01:19;;;;;;;5.18;2.67;;;2.40;86.80;;;;;;4997631;28;20064;-82
2021/01/21 01:03:46;;;;;;;7.57;2.58;;;2.50;86.90;;;;;;4988050;28;20095;-84
2021/01/21 01:06:13;;;;;;;8.13;3.25;;;2.50;86.80;;;;;;4988965;28;20058;-83
2021/01/21 01:08:42;;;;;;;6.07;3.05;;;2.50;86.90;;;;;;4966402;28;20045;-83
2021/01/21 01:11:10;;;;;;;8.30;3.47;;;2.60;86.70;;;;;;4997138;28;20061;-85
2021/01/21 01:13:37;;;;;;;9.40;2.28;;;2.50;86.80;;;;;;4982961;28;20371;-84
2021/01/21 01:16:09;;;;;;;5.82;2.72;;;2.50;86.70;;;;;;4997405;28;20445;-84
2021/01/21 01:18:46;;;;;;;7.50;2.25;;;2.50;86.80;;;;;;4983114;28;20054;-84
2021/01/21 01:21:12;;;;;;;6.00;2.17;;;2.50;86.90;;;;;;5005903;28;20578;-84
2021/01/21 01:23:39;;;;;;;5.68;2.20;;;2.40;86.90;;;;;;5001916;28;20379;-82
2021/01/21 01:26:06;;;;;;;4.88;1.73;;;2.40;86.90;;;;;;5000387;28;20053;-83
2021/01/21 01:28:33;;;;;;;4.70;2.13;;;2.40;87.00;;;;;;4997440;28;20064;-84
2021/01/21 01:31:01;;;;;;;3.60;1.42;;;2.40;87.10;;;;;;4987688;28;20065;-83
2021/01/21 01:33:28;;;;;;;5.75;1.55;;;2.40;86.80;;;;;;5000278;28;20088;-79
2021/01/21 01:35:56;;;;;;;5.53;1.83;;;2.50;86.60;;;;;;5000113;28;20499;-80
2021/01/21 01:38:22;;;;;;;4.28;1.42;;;2.60;86.50;;;;;;5005850;28;20061;-83
2021/01/21 01:40:52;;;;;;;3.35;1.45;;;2.60;86.60;;;;;;5006369;28;20079;-82
2021/01/21 01:43:19;;;;;;;3.17;1.25;;;2.60;86.30;;;;;;4991521;28;20045;-84
2021/01/21 01:45:49;;;;;;;4.28;1.67;;;2.70;86.30;;;;;;4988947;28;20240;-83
2021/01/21 01:48:17;;;;;;;6.10;1.50;;;2.80;85.70;;;;;;5004849;28;20074;-82
2021/01/21 01:50:50;;;;;;;5.97;1.77;;;2.80;85.60;;;;;;4996927;28;20276;-82
2021/01/21 01:53:23;;;;;;;4.55;1.42;;;3.00;85.20;;;;;;4993042;28;20685;-82
2021/01/21 01:55:53;;;;;;;3.80;1.35;;;3.00;85.10;;;;;;4993494;28;22311;-84
2021/01/21 01:58:31;;;;;;;8.95;1.55;;;3.00;84.90;;;;;;4975229;28;20075;-82
2021/01/21 02:01:05;;;;;;;4.93;2.00;;;3.10;84.70;;;;;;5012078;28;20059;-82
2021/01/21 02:03:34;;;;;;;3.40;1.58;;;3.10;84.60;;;;;;4991541;28;20804;-85
2021/01/21 02:06:24;;;;;;;4.55;1.40;;;3.10;84.40;;;;;;4999344;28;20364;-82
2021/01/21 02:08:54;;;;;;;4.40;1.95;;;3.00;84.70;;;;;;4992749;28;20245;-83
2021/01/21 02:11:44;;;;;;;4.43;1.60;;;3.00;85.00;;;;;;5005948;28;20037;-83
2021/01/21 02:14:20;;;;;;;2.30;1.35;;;3.10;84.80;;;;;;5006212;28;20315;-82
2021/01/21 02:16:55;;;;;;;2.72;1.30;;;3.20;84.50;;;;;;5003573;28;20066;-82
2021/01/21 02:20:19;;;;;;;7.43;2.20;;;3.30;84.30;;;;;;4975133;28;20045;-83
2021/01/21 02:23:21;;;;;;;6.90;1.58;;;3.40;83.70;;;;;;4983555;28;20057;-85
2021/01/21 02:25:54;;;;;;;5.40;1.95;;;3.40;83.70;;;;;;5003956;28;20093;-82
2021/01/21 02:28:48;;;;;;;4.50;1.45;;;3.40;83.50;;;;;;4975674;28;20054;-82
2021/01/21 02:31:27;;;;;;;2.15;1.60;;;3.40;83.70;;;;;;4980474;28;20370;-87
2021/01/21 02:33:57;;;;;;;5.22;2.50;;;3.30;83.80;;;;;;5008259;28;20062;-83
2021/01/21 02:36:33;;;;;;;3.00;1.33;;;3.30;84.00;;;;;;4992864;28;20042;-83
2021/01/21 02:39:04;;;;;;;4.00;1.65;;;3.30;83.90;;;;;;4990510;28;20340;-86
2021/01/21 02:41:33;;;;;;;2.20;0.95;;;3.40;83.30;;;;;;4973333;28;20159;-83
2021/01/21 02:44:00;;;;;;;5.25;1.67;;;3.50;83.10;;;;;;5015897;28;20053;-84
2021/01/21 02:46:27;;;;;;;4.20;1.73;;;3.50;83.20;;;;;;5018059;28;20129;-84
2021/01/21 02:48:58;;;;;;;3.40;1.27;;;3.50;83.20;;;;;;5000924;28;20050;-84
2021/01/21 02:51:33;;;;;;;3.85;1.38;;;3.50;82.70;;;;;;5017084;28;20124;-86
2021/01/21 02:54:18;;;;;;;3.25;0.90;;;3.60;82.60;;;;;;5016211;28;20120;-82
2021/01/21 02:56:46;;;;;;;3.05;1.33;;;3.70;82.40;;;;;;5013272;28;20144;-83
2021/01/21 02:59:18;;;;;;;2.25;0.80;;;3.70;82.60;;;;;;5009313;28;20060;-84
2021/01/21 03:01:48;;;;;;;2.63;1.75;;;3.70;82.40;;;;;;4989456;28;20065;-85
2021/01/21 03:04:19;;;;;;;2.53;1.17;;;3.70;82.60;;;;;;5006455;28;20061;-83
2021/01/21 03:06:48;;;;;;;2.65;1.13;;;3.70;82.70;;;;;;4994292;28;20073;-85
2021/01/21 03:09:33;;;;;;;6.32;1.10;;;3.70;82.60;;;;;;4994446;28;20363;-85
2021/01/21 03:12:16;;;;;;;4.90;1.58;;;3.70;82.20;;;;;;5017316;28;20072;-84
2021/01/21 03:14:43;;;;;;;1.73;0.88;;;3.80;82.10;;;;;;5017219;28;20054;-85
2021/01/21 03:17:10;;;;;;;1.17;0.98;;;3.90;81.60;;;;;;4998909;28;20324;-83
2021/01/21 03:19:40;;;;;;;3.35;1.63;;;3.80;81.90;;;;;;4982323;28;20360;-82
2021/01/21 03:22:07;;;;;;;3.30;1.40;;;3.70;82.10;;;;;;4998915;28;20552;-83
2021/01/21 03:24:37;;;;;;;4.68;1.65;;;3.70;82.30;;;;;;4981637;28;20314;-84
2021/01/21 03:27:11;;;;;;;4.30;1.38;;;3.70;82.20;;;;;;4990338;28;20049;-82
2021/01/21 03:29:38;;;;;;;2.55;1.35;;;3.70;82.30;;;;;;5004799;28;20125;-83
2021/01/21 03:32:06;;;;;;;5.22;1.70;;;3.60;82.50;;;;;;4995130;28;20344;-82
2021/01/21 03:34:52;;;;;;;2.95;1.35;;;3.70;82.00;;;;;;4993668;28;20053;-83
2021/01/21 03:37:19;;;;;;;4.97;2.03;;;3.70;82.20;;;;;;5011636;28;20056;-84
2021/01/21 03:39:51;;;;;;;3.47;1.08;;;3.70;82.10;;;;;;4993874;28;20062;-82
2021/01/21 03:42:41;;;;;;;4.07;1.40;;;3.70;82.00;;;;;;4990331;28;20096;-81
2021/01/21 03:45:42;;;;;;;4.03;1.65;;;3.70;82.10;;;;;;4987199;28;20042;-83
2021/01/21 03:48:15;;;;;;;4.68;1.45;;;3.70;81.70;;;;;;4990183;28;20064;-85
2021/01/21 03:51:03;;;;;;;2.45;1.15;;;3.70;81.80;;;;;;5007102;28;20084;-83
2021/01/21 03:53:31;;;;;;;4.50;1.58;;;3.70;81.70;;;;;;5006937;28;20053;-82
2021/01/21 03:56:18;;;;;;;4.32;1.15;;;3.60;81.60;;;;;;5009349;28;20069;-82
2021/01/21 03:58:45;;;;;;;1.02;0.75;;;3.50;82.10;;;;;;4991871;28;20061;-84
2021/01/21 04:01:17;;;;;;;2.35;1.08;;;3.50;82.10;;;;;;5012624;28;20107;-85
2021/01/21 04:03:45;;;;;;;2.88;1.08;;;3.40;82.00;;;;;;5014832;28;20492;-83
2021/01/21 04:06:13;;;;;;;1.38;0.85;;;3.60;84.20;;;;;;5016316;28;20575;-83
2021/01/21 04:08:50;;;;;;;2.78;1.20;;;3.60;81.50;;;;;;5001578;28;20053;-85
2021/01/21 04:11:26;;;;;;;2.70;1.50;;;3.70;81.70;;;;;;5061693;22;20048;-83
2021/01/21 04:13:58;;;;;;;2.42;1.08;;;3.60;81.30;;;;;;5031532;28;20053;-85
2021/01/21 04:16:26;;;;;;;2.78;0.88;;;3.60;81.00;;;;;;5042543;28;20053;-85
2021/01/21 04:18:54;;;;;;;1.55;0.50;;;4.50;76.40;;;;;;5031748;28;20080;-82
2021/01/21 04:21:25;;;;;;;0.75;0.30;;;4.80;75.20;;;;;;5022335;28;20049;-82
2021/01/21 04:24:02;;;;;;;0.75;0.30;;;5.50;70.70;;;;;;5039341;28;20048;-83
2021/01/21 04:26:47;;;;;;;0.73;0.60;;;7.00;62.20;;;;;;5033159;28;20351;-84
2021/01/21 04:29:17;;;;;;;1.00;0.28;;;8.90;53.80;;;;;;5028096;28;20044;-83
2021/01/21 04:31:50;;;;;;;1.92;0.52;;;9.80;50.50;;;;;;5036879;28;20068;-81
2021/01/21 04:34:35;;;;;;;1.27;1.05;;;10.20;48.30;;;;;;5019023;28;20064;-83
2021/01/21 04:37:47;;;;;;;0.52;0.22;;;10.40;47.50;;;;;;5031070;28;20191;-81
2021/01/21 04:40:41;;;;;;;0.63;0.32;;;10.60;47.00;;;;;;4995869;28;20294;-81
2021/01/21 04:43:48;;;;;;;0.40;0.20;;;10.70;46.40;;;;;;5003019;28;20362;-81
2021/01/21 04:46:28;;;;;;;1.70;0.47;;;11.10;45.00;;;;;;5027237;28;20057;-82
2021/01/21 04:49:02;;;;;;;1.80;0.40;;;11.10;45.50;;;;;;5024272;28;20344;-82
2021/01/21 04:51:39;;;;;;;0.77;0.50;;;11.20;45.20;;;;;;5015129;28;20044;-83
2021/01/21 04:54:32;;;;;;;3.40;0.50;;;11.20;45.00;;;;;;5007048;28;20052;-82
2021/01/21 04:57:15;;;;;;;2.10;0.43;;;11.30;44.50;;;;;;4986100;28;20041;-83
2021/01/21 04:59:46;;;;;;;1.20;0.55;;;11.40;44.60;;;;;;5044400;28;20114;-84
2021/01/21 05:02:40;;;;;;;1.67;0.82;;;11.20;45.00;;;;;;5041352;28;20074;-83
2021/01/21 05:05:25;;;;;;;0.65;0.30;;;11.30;44.80;;;;;;5045357;28;20232;-83
2021/01/21 05:07:53;;;;;;;1.27;0.55;;;11.30;45.00;;;;;;5030907;28;20053;-81
2021/01/21 05:10:28;;;;;;;0.70;0.30;;;11.30;45.00;;;;;;5018778;28;22860;-82
2021/01/21 05:12:55;;;;;;;1.52;0.35;;;11.30;44.90;;;;;;5028850;28;20325;-81
2021/01/21 05:15:40;;;;;;;1.90;0.60;;;11.20;45.50;;;;;;5030152;28;23381;-82
2021/01/21 05:18:29;;;;;;;0.95;0.35;;;11.10;46.00;;;;;;5022841;28;20048;-83
2021/01/21 05:21:17;;;;;;;1.95;0.45;;;11.10;45.80;;;;;;5040920;28;20466;-81
2021/01/21 05:24:08;;;;;;;1.95;0.40;;;11.20;46.20;;;;;;5040851;28;20152;-83
2021/01/21 05:26:55;;;;;;;1.25;0.77;;;11.20;45.70;;;;;;5040759;28;20126;-82
2021/01/21 05:29:49;;;;;;;2.75;0.32;;;11.10;46.00;;;;;;5040242;28;20143;-84
2021/01/21 05:32:18;;;;;;;1.08;0.40;;;11.10;46.10;;;;;;5040068;28;20052;-83
2021/01/21 05:34:53;;;;;;;1.30;0.35;;;11.10;46.30;;;;;;5018171;28;20060;-83
2021/01/21 05:37:38;;;;;;;1.05;0.30;;;11.20;45.80;;;;;;5021989;28;20052;-84
2021/01/21 05:40:31;;;;;;;0.52;0.30;;;11.20;45.50;;;;;;5038673;28;20063;-83
2021/01/21 05:43:36;;;;;;;0.80;0.30;;;11.20;45.90;;;;;;5019637;28;20052;-83
2021/01/21 05:46:17;;;;;;;0.98;0.30;;;11.10;46.60;;;;;;5021823;28;20231;-82
2021/01/21 05:48:47;;;;;;;2.53;0.40;;;11.20;46.40;;;;;;5022184;28;20107;-83
2021/01/21 05:51:15;;;;;;;2.87;0.70;;;11.10;46.60;;;;;;5035659;28;20098;-83
2021/01/21 05:53:45;;;;;;;2.80;0.88;;;11.10;46.80;;;;;;5034739;28;20375;-83
2021/01/21 05:56:29;;;;;;;1.58;0.55;;;11.10;47.10;;;;;;5037285;28;20063;-82
2021/01/21 05:59:22;;;;;;;1.77;0.60;;;11.00;47.30;;;;;;5030010;28;20056;-83
2021/01/21 06:01:58;;;;;;;1.30;0.55;;;11.00;47.50;;;;;;5034404;28;20107;-82
2021/01/21 06:04:34;;;;;;;1.00;0.50;;;11.10;47.70;;;;;;5021483;28;20060;-83
2021/01/21 06:07:02;;;;;;;1.55;0.60;;;10.90;48.10;;;;;;5020281;28;20049;-83
2021/01/21 06:09:31;;;;;;;0.40;0.28;;;10.90;48.20;;;;;;5025815;28;20079;-83
2021/01/21 06:11:59;;;;;;;1.00;0.38;;;11.00;48.10;;;;;;5003172;28;20111;-84
2021/01/21 06:14:27;;;;;;;0.57;0.30;;;11.00;48.00;;;;;;5039829;28;20059;-83
2021/01/21 06:16:56;;;;;;;1.60;0.70;;;11.00;48.00;;;;;;5023067;28;20045;-82
2021/01/21 06:19:23;;;;;;;0.98;0.30;;;11.00;48.20;;;;;;5023693;28;20048;-84
2021/01/21 06:22:05;;;;;;;3.83;0.80;;;11.20;47.60;;;;;;5022825;28;20072;-82
2021/01/21 06:24:46;;;;;;;0.90;0.40;;;11.10;47.90;;;;;;5021663;28;20889;-82
2021/01/21 06:27:16;;;;;;;1.23;0.47;;;11.20;47.80;;;;;;5024037;28;20049;-82
2021/01/21 06:29:47;;;;;;;4.00;0.52;;;11.30;47.40;;;;;;5041538;28;20052;-82
2021/01/21 06:32:17;;;;;;;1.73;0.60;;;11.30;47.30;;;;;;5048440;28;20056;-80
2021/01/21 06:34:45;;;;;;;1.50;0.57;;;11.30;47.50;;;;;;5015519;28;20099;-82
2021/01/21 06:37:13;;;;;;;1.40;0.68;;;11.30;47.50;;;;;;5027921;28;20063;-81
2021/01/21 06:39:51;;;;;;;0.73;0.30;;;11.40;47.30;;;;;;5020821;28;20080;-83
2021/01/21 06:42:23;;;;;;;1.27;0.47;;;11.40;47.20;;;;;;5009776;28;20053;-81
2021/01/21 06:44:52;;;;;;;1.58;0.63;;;11.50;47.10;;;;;;5025025;28;20511;-83
2021/01/21 06:47:19;;;;;;;1.15;0.68;;;11.40;47.70;;;;;;5042366;28;20304;-82
2021/01/21 06:49:47;;;;;;;1.98;0.57;;;11.30;47.50;;;;;;5026642;28;20060;-81
2021/01/21 06:52:14;;;;;;;3.03;0.75;;;11.30;47.60;;;;;;5038249;28;20045;-83
2021/01/21 06:54:42;;;;;;;1.33;0.65;;;11.20;48.10;;;;;;5027000;28;20260;-82
2021/01/21 06:57:43;;;;;;;1.92;0.80;;;11.10;48.40;;;;;;5039805;28;20048;-81
2021/01/21 07:00:14;;;;;;;1.75;0.35;;;11.10;48.40;;;;;;5043878;28;20132;-83
2021/01/21 07:02:42;;;;;;;2.45;0.50;;;11.20;47.80;;;;;;5045049;28;20128;-82
2021/01/21 07:05:15;;;;;;;1.95;1.20;;;11.30;48.20;;;;;;5047876;28;20375;-84
2021/01/21 07:08:02;;;;;;;1.75;0.57;;;11.30;48.10;;;;;;5012462;28;20052;-86
2021/01/21 07:10:31;;;;;;;1.95;0.40;;;11.30;48.00;;;;;;5029391;28;20111;-81
2021/01/21 07:13:00;;;;;;;1.88;0.50;;;11.30;48.20;;;;;;5041119;28;20061;-83
2021/01/21 07:15:51;;;;;;;1.55;0.32;;;11.40;48.30;;;;;;5043935;28;20049;-82
2021/01/21 07:18:19;;;;;;;1.92;0.40;;;11.30;48.60;;;;;;5029038;28;20056;-84
2021/01/21 07:21:09;;;;;;;2.63;0.60;;;11.40;48.40;;;;;;5047198;28;20063;-82
2021/01/21 07:23:39;;;;;;;0.70;0.40;;;11.30;49.10;;;;;;5026202;28;20434;-80
2021/01/21 07:26:28;;;;;;;0.80;0.30;;;11.30;48.70;;;;;;5018197;28;20263;-82
2021/01/21 07:29:03;;;;;;;0.95;0.30;;;11.30;49.10;;;;;;5042081;28;20129;-81
2021/01/21 07:32:12;;;;;;;0.55;0.30;;;11.20;49.40;;;;;;5024886;28;20057;-82
2021/01/21 07:34:44;;;;;;;1.67;0.45;;;11.30;49.50;;;;;;5033865;28;20350;-84
2021/01/21 07:37:16;;;;;;;1.85;0.50;;;11.40;49.10;;;;;;5048357;28;20260;-82
2021/01/21 07:39:54;;;;;;;1.55;0.47;;;11.30;49.80;;;;;;5023675;28;20067;-86
2021/01/21 07:42:53;;;;;;;2.00;0.52;;;11.40;49.50;;;;;;5025406;28;20049;-81
2021/01/21 07:45:28;;;;;;;2.30;0.60;;;11.50;49.50;;;;;;5041440;28;20048;-81
2021/01/21 07:47:58;;;;;;;1.52;0.45;;;11.50;49.50;;;;;;5028738;28;20049;-82
2021/01/21 07:50:40;;;;;;;0.97;0.47;;;11.50;49.20;;;;;;5023790;28;20057;-81
2021/01/21 07:53:18;;;;;;;0.50;0.30;;;11.50;49.50;;;;;;5004000;28;20049;-81
2021/01/21 07:55:46;;;;;;;3.33;0.40;;;11.40;50.30;;;;;;5042361;28;20049;-82
2021/01/21 07:58:18;;;;;;;0.55;0.25;;;11.50;49.90;;;;;;5039459;28;20083;-82
2021/01/21 08:00:45;;;;;;;0.65;0.32;;;11.60;49.60;;;;;;5041300;28;20069;-81
2021/01/21 08:03:14;;;;;;;0.63;0.30;;;11.60;49.40;;;;;;5020340;28;20068;-82
2021/01/21 08:05:42;;;;;;;0.98;0.50;;;11.60;49.70;;;;;;5040350;28;20068;-82
2021/01/21 08:08:11;;;;;;;1.75;0.50;;;11.60;49.70;;;;;;5043862;28;20057;-81
2021/01/21 08:10:38;;;;;;;2.20;0.50;;;11.60;49.60;;;;;;5039980;28;20059;-82
2021/01/21 08:13:06;;;;;;;1.08;0.50;;;11.60;49.70;;;;;;5041047;28;20385;-83
2021/01/21 08:15:35;;;;;;;0.55;0.40;;;11.70;49.90;;;;;;5018277;28;20053;-81
2021/01/21 08:18:05;;;;;;;1.08;0.35;;;11.70;50.20;;;;;;5043946;28;20108;-83
2021/01/21 08:20:36;;;;;;;1.60;0.28;;;11.80;50.60;;;;;;5037547;28;20048;-84
2021/01/21 08:23:05;;;;;;;1.83;0.60;;;11.70;50.90;;;;;;5040066;28;20053;-82
2021/01/21 08:25:40;;;;;;;2.80;0.50;;;11.60;51.40;;;;;;5019617;28;20052;-82
2021/01/21 08:28:07;;;;;;;1.80;0.63;;;11.60;51.60;;;;;;5040863;28;20052;-83
2021/01/21 08:30:35;;;;;;;3.08;0.65;;;11.60;51.90;;;;;;5043389;28;20061;-82
2021/01/21 08:33:06;;;;;;;0.98;0.38;;;11.60;52.00;;;;;;5011352;28;20057;-83
2021/01/21 08:35:43;;;;;;;1.55;0.38;;;11.60;52.40;;;;;;5048553;28;20060;-81
2021/01/21 08:38:12;;;;;;;2.45;0.40;;;11.60;53.20;;;;;;5043896;28;20061;-81
2021/01/21 08:40:40;;;;;;;3.35;0.50;;;11.60;53.40;;;;;;5046246;28;20057;-83
2021/01/21 08:43:07;;;;;;;2.05;0.50;;;11.60;53.70;;;;;;5026098;28;20049;-82
2021/01/21 08:45:34;;;;;;;0.68;0.25;;;11.50;54.30;;;;;;5012327;28;20076;-80
2021/01/21 08:48:05;;;;;;;1.50;0.50;;;11.60;54.40;;;;;;5048794;28;20060;-81
2021/01/21 08:50:38;;;;;;;1.08;0.73;;;11.60;55.00;;;;;;5026267;28;20057;-83
2021/01/21 08:53:08;;;;;;;1.42;0.50;;;11.50;55.40;;;;;;5030892;28;20358;-82
2021/01/21 08:55:46;;;;;;;0.20;0.20;;;11.60;55.60;;;;;;5022735;28;20263;-81
2021/01/21 08:58:15;;;;;;;1.80;0.77;;;11.50;56.10;;;;;;5040776;28;20055;-81
2021/01/21 09:00:58;;;;;;;2.70;0.30;;;11.50;57.70;;;;;;5049722;28;20166;-82
2021/01/21 09:03:46;;;;;;;0.88;0.30;;;11.40;58.10;;;;;;5037815;28;20381;-83
2021/01/21 09:06:15;;;;;;;0.65;0.30;;;11.10;65.50;;;;;;5040759;28;20056;-81
2021/01/21 09:08:46;;;;;;;2.22;0.38;;;10.80;66.30;;;;;;5037670;28;20059;-84
2021/01/21 09:11:32;;;;;;;1.02;0.25;;;10.80;65.90;;;;;;4999958;28;20057;-80
2021/01/21 09:14:00;;;;;;;0.30;0.20;;;10.50;71.30;;;;;;4997834;28;20627;-81
2021/01/21 09:16:39;;;;;;;1.88;0.52;;;10.30;71.10;;;;;;5000122;28;20080;-81
2021/01/21 09:19:07;;;;;;;0.82;0.70;;;10.20;70.50;;;;;;5007875;28;20085;-81
2021/01/21 09:21:34;;;;;;;1.33;0.60;;;10.20;70.80;;;;;;5006430;28;20045;-80
2021/01/21 09:24:06;;;;;;;1.23;0.40;;;10.20;70.70;;;;;;5005787;28;20241;-81
2021/01/21 09:26:33;;;;;;;1.25;0.38;;;10.30;70.80;;;;;;5004464;28;20372;-82
2021/01/21 09:29:00;;;;;;;2.72;0.47;;;10.40;70.10;;;;;;5008381;28;20058;-81
2021/01/21 09:31:31;;;;;;;2.47;0.40;;;10.30;70.50;;;;;;5010971;28;20069;-82
2021/01/21 09:33:59;;;;;;;1.08;0.32;;;10.40;70.40;;;;;;5004990;28;20311;-80
2021/01/21 09:36:30;;;;;;;0.98;0.30;;;10.40;70.60;;;;;;4991517;28;20057;-82
2021/01/21 09:38:58;;;;;;;1.00;0.30;;;10.50;70.00;;;;;;5001735;28;20046;-81
2021/01/21 09:41:26;;;;;;;1.08;0.50;;;10.50;70.00;;;;;;5015161;28;20092;-82
2021/01/21 09:43:52;;;;;;;1.45;0.52;;;10.50;70.70;;;;;;5001563;28;20140;-85
2021/01/21 09:46:19;;;;;;;1.05;0.40;;;10.40;70.60;;;;;;5017034;28;20061;-82
2021/01/21 09:48:46;;;;;;;2.85;1.25;;;10.40;70.60;;;;;;5021917;28;20288;-81
2021/01/21 09:51:13;;;;;;;2.15;0.90;;;10.50;70.80;;;;;;5009293;28;20111;-83
2021/01/21 09:53:40;;;;;;;1.02;0.50;;;10.60;69.50;;;;;;5005048;28;20145;-82
2021/01/21 09:56:07;;;;;;;5.13;0.32;;;10.60;69.30;;;;;;5004353;28;20054;-84
2021/01/21 09:58:34;;;;;;;1.85;0.40;;;10.70;68.80;;;;;;5002061;28;20061;-82
2021/01/21 10:01:02;;;;;;;0.40;0.25;;;10.80;68.30;;;;;;5006460;28;20472;-83
2021/01/21 10:03:29;;;;;;;1.13;0.40;;;10.80;67.70;;;;;;5001213;28;20057;-81
2021/01/21 10:05:56;;;;;;;0.85;0.30;;;11.10;66.70;;;;;;5000796;28;20064;-81
2021/01/21 10:08:22;;;;;;;1.75;0.32;;;11.10;66.80;;;;;;5014249;28;20041;-83
2021/01/21 10:10:50;;;;;;;0.88;0.40;;;11.10;66.40;;;;;;5030965;28;20515;-82
2021/01/21 10:13:18;;;;;;;1.42;0.40;;;11.10;66.60;;;;;;5039173;28;20283;-81
2021/01/21 10:15:45;;;;;;;1.23;0.45;;;11.20;66.00;;;;;;5043136;28;20055;-81
2021/01/21 10:18:12;;;;;;;1.77;0.43;;;11.30;65.90;;;;;;5044417;28;20045;-84
2021/01/21 10:20:39;;;;;;;3.50;0.50;;;11.30;65.90;;;;;;5044686;28;20470;-81
2021/01/21 10:23:06;;;;;;;2.03;0.60;;;11.40;66.10;;;;;;5054109;28;20072;-81
2021/01/21 10:25:33;;;;;;;2.10;1.55;;;11.50;65.90;;;;;;5010021;28;20044;-81
2021/01/21 10:28:03;;;;;;;1.85;0.40;;;11.60;65.50;;;;;;5030181;28;20048;-82
2021/01/21 10:30:30;;;;;;;0.60;0.20;;;11.60;65.40;;;;;;5046431;28;20057;-81
2021/01/21 10:32:57;;;;;;;1.15;0.30;;;11.70;65.40;;;;;;5043954;28;20223;-82
2021/01/21 10:35:24;;;;;;;0.50;0.17;;;11.70;65.40;;;;;;5023069;28;20060;-83
2021/01/21 10:37:51;;;;;;;0.15;0.15;;;11.60;65.60;;;;;;5010878;28;20052;-81
2021/01/21 10:40:18;;;;;;;0.60;0.30;;;11.60;66.00;;;;;;5043666;28;20195;-82
2021/01/21 10:42:45;;;;;;;3.05;0.43;;;11.60;66.30;;;;;;5040567;28;20052;-82
2021/01/21 10:45:14;;;;;;;0.47;0.20;;;11.60;66.80;;;;;;5010887;28;20429;-81
2021/01/21 10:47:42;;;;;;;0.60;0.20;;;11.50;67.40;;;;;;5025357;28;20045;-82
2021/01/21 10:50:10;;;;;;;1.42;0.50;;;11.50;70.10;;;;;;5043248;28;20053;-81
2021/01/21 10:52:37;;;;;;;0.80;0.22;;;11.20;72.20;;;;;;5027897;28;20056;-81
2021/01/21 10:55:05;;;;;;;3.63;0.80;;;11.10;73.60;;;;;;5030229;28;20069;-82
2021/01/21 10:57:32;;;;;;;2.10;0.60;;;10.90;74.40;;;;;;5049269;28;20509;-82
2021/01/21 11:00:00;;;;;;;3.75;0.38;;;10.90;74.50;;;;;;5050700;28;20049;-84
2021/01/21 11:02:30;;;;;;;2.47;0.40;;;10.80;75.20;;;;;;5029546;28;20068;-83
2021/01/21 11:04:58;;;;;;;0.57;0.30;;;10.60;78.50;;;;;;5028686;28;20326;-83
2021/01/21 11:07:24;;;;;;;1.13;0.38;;;10.40;80.10;;;;;;5035138;28;20358;-85
2021/01/21 11:09:51;;;;;;;3.88;0.40;;;10.00;83.50;;;;;;5033191;28;20170;-83
2021/01/21 11:12:18;;;;;;;0.80;0.40;;;9.70;85.60;;;;;;5035327;28;20044;-83
2021/01/21 11:14:48;;;;;;;1.88;0.65;;;9.40;85.10;;;;;;5059426;28;20079;-82
2021/01/21 11:17:15;;;;;;;1.30;0.30;;;9.30;85.00;;;;;;5022774;28;20072;-82
2021/01/21 11:19:43;;;;;;;0.30;0.30;;;9.20;84.80;;;;;;5049469;28;20048;-81
2021/01/21 11:22:10;;;;;;;0.98;0.38;;;9.00;84.60;;;;;;5058053;28;20068;-84
2021/01/21 11:24:37;;;;;;;0.38;0.10;;;8.90;85.10;;;;;;5040245;28;20128;-82
2021/01/21 11:27:04;;;;;;;0.88;0.30;;;8.80;85.60;;;;;;5035351;28;20044;-80
2021/01/21 11:29:31;;;;;;;0.50;0.20;;;8.70;86.80;;;;;;5041652;28;20091;-82
2021/01/21 11:31:59;;;;;;;0.47;0.20;;;8.70;86.90;;;;;;5019779;28;20053;-81
2021/01/21 11:34:26;;;;;;;2.55;0.45;;;8.70;87.00;;;;;;5032748;28;20061;-81
2021/01/21 11:36:53;;;;;;;0.70;0.30;;;8.70;87.30;;;;;;5048008;28;20259;-81
2021/01/21 11:39:21;;;;;;;1.80;0.70;;;8.70;86.90;;;;;;5037985;28;20071;-83
2021/01/21 11:41:47;;;;;;;3.15;0.93;;;8.70;87.00;;;;;;5035503;28;20053;-82
2021/01/21 11:44:15;;;;;;;1.95;0.70;;;8.80;86.80;;;;;;5049463;28;20103;-81
2021/01/21 11:46:42;;;;;;;1.42;0.55;;;8.70;84.90;;;;;;5036842;28;20356;-81
2021/01/21 11:49:09;;;;;;;1.27;0.40;;;8.60;84.20;;;;;;5014579;28;20331;-81
2021/01/21 11:51:36;;;;;;;2.28;0.10;;;8.60;84.00;;;;;;5041563;28;20181;-82
2021/01/21 11:54:03;;;;;;;0.50;0.13;;;8.60;83.50;;;;;;5026574;28;20266;-82
2021/01/21 11:56:31;;;;;;;0.65;0.22;;;8.60;83.10;;;;;;5023944;28;20253;-82
2021/01/21 11:59:09;;;;;;;0.45;0.10;;;8.50;83.00;;;;;;5013638;28;20119;-83
2021/01/21 12:01:36;;;;;;;2.17;0.30;;;8.50;82.90;;;;;;5026552;28;20041;-82
2021/01/21 12:04:03;;;;;;;3.00;0.20;;;8.50;83.50;;;;;;5048523;28;20374;-83
2021/01/21 12:06:32;;;;;;;0.30;0.20;;;8.50;83.70;;;;;;5007390;28;20052;-81
2021/01/21 12:08:59;;;;;;;5.68;0.68;;;8.50;84.00;;;;;;5048664;28;20088;-81
2021/01/21 12:11:26;;;;;;;0.60;0.35;;;8.50;84.80;;;;;;5040387;28;20072;-82
2021/01/21 12:13:54;;;;;;;3.75;0.95;;;8.40;84.50;;;;;;5028260;28;20057;-82
2021/01/21 12:16:21;;;;;;;2.50;0.90;;;8.40;85.20;;;;;;5028432;28;20225;-83
2021/01/21 12:18:48;;;;;;;1.42;0.20;;;8.30;85.40;;;;;;5045713;28;20060;-81
2021/01/21 12:21:15;;;;;;;1.17;0.15;;;8.20;83.60;;;;;;5027067;28;20274;-81
2021/01/21 12:23:42;;;;;;;0.77;0.20;;;8.20;84.50;;;;;;5043036;28;20060;-81
2021/01/21 12:26:09;;;;;;;1.92;0.20;;;8.10;86.00;;;;;;5025291;28;20125;-82
2021/01/21 12:28:36;;;;;;;0.10;0.10;;;8.10;86.70;;;;;;5030580;28;20369;-81
2021/01/21 12:31:05;;;;;;;0.80;0.20;;;8.00;88.00;;;;;;5051243;28;20068;-81
2021/01/21 12:33:34;;;;;;;0.82;0.30;;;7.90;88.50;;;;;;5039386;28;21234;-84
2021/01/21 12:36:02;;;;;;;0.63;0.13;;;7.90;88.90;;;;;;5041830;28;20344;-82
2021/01/21 12:38:29;;;;;;;0.77;0.47;;;8.00;89.00;;;;;;5041687;28;20057;-83
2021/01/21 12:40:57;;;;;;;2.25;0.30;;;8.00;89.30;;;;;;5043922;28;20061;-83
2021/01/21 12:43:24;;;;;;;3.70;0.38;;;8.00;89.20;;;;;;5031693;28;20080;-82
2021/01/21 12:45:51;;;;;;;0.70;0.20;;;8.00;88.90;;;;;;5018261;28;20115;-82
2021/01/21 12:48:23;;;;;;;0.60;0.25;;;8.00;89.20;;;;;;5045120;28;20434;-83
2021/01/21 12:50:52;;;;;;;0.60;0.30;;;7.90;89.90;;;;;;5028126;28;20539;-82
2021/01/21 12:53:19;;;;;;;0.57;0.20;;;7.90;90.30;;;;;;5037286;28;20067;-83
2021/01/21 12:55:51;;;;;;;0.25;0.17;;;7.80;91.20;;;;;;5048106;28;20049;-83
2021/01/21 12:58:18;;;;;;;2.58;0.28;;;7.80;91.40;;;;;;5030438;28;20049;-82
2021/01/21 13:00:44;;;;;;;1.15;0.32;;;7.80;91.60;;;;;;5043170;28;20065;-82
2021/01/21 13:03:12;;;;;;;8.27;0.55;;;7.80;91.60;;;;;;5051241;28;20069;-84
2021/01/21 13:05:39;;;;;;;0.80;0.30;;;7.80;91.50;;;;;;5012635;28;20061;-82
2021/01/21 13:08:06;;;;;;;2.47;0.20;;;7.80;91.30;;;;;;5053718;28;20048;-84
2021/01/21 13:10:33;;;;;;;0.98;0.30;;;7.80;91.60;;;;;;5045780;28;20053;-83
2021/01/21 13:13:00;;;;;;;1.08;0.20;;;7.70;91.80;;;;;;5018090;28;20052;-82
2021/01/21 13:15:28;;;;;;;0.10;0.10;;;7.70;92.60;;;;;;5039201;28;20041;-82
2021/01/21 13:17:55;;;;;;;1.95;0.20;;;7.70;91.70;;;;;;5031379;28;20052;-83
2021/01/21 13:20:22;;;;;;;1.50;0.30;;;7.70;92.30;;;;;;5053110;28;20051;-82